sensor_id;sensor_type;location;lat;lon;timestamp;temperature;humidity
26063;DHT22;13837;48.562;12.108;2022-07-10T00:00:32;15.40;99.90
26063;DHT22;13837;48.562;12.108;2022-07-10T00:02:58;15.40;99.90
26063;DHT22;13837;48.562;12.108;2022-07-10T00:05:25;15.50;99.90
26063;DHT22;13837;48.562;12.108;2022-07-10T00:07:51;15.40;99.90
26063;DHT22;13837;48.562;12.108;2022-07-10T00:10:21;15.40;99.90
26063;DHT22;13837;48.562;12.108;2022-07-10T00:12:48;15.40;99.90
26063;DHT22;13837;48.562;12.108;2022-07-10T00:15:14;15.30;99.90
26063;DHT22;13837;48.562;12.108;2022-07-10T00:17:41;15.30;99.90
26063;DHT22;13837;48.562;12.108;2022-07-10T00:20:08;15.40;99.90
26063;DHT22;13837;48.562;12.108;2022-07-10T00:22:34;15.40;99.90
26063;DHT22;13837;48.562;12.108;2022-07-10T00:25:02;15.30;99.90
26063;DHT22;13837;48.562;12.108;2022-07-10T00:27:27;15.30;99.90
26063;DHT22;13837;48.562;12.108;2022-07-10T00:29:53;15.30;99.90
26063;DHT22;13837;48.562;12.108;2022-07-10T00:32:19;15.20;99.90
26063;DHT22;13837;48.562;12.108;2022-07-10T00:34:45;15.20;99.90
26063;DHT22;13837;48.562;12.108;2022-07-10T00:37:10;15.20;99.90
26063;DHT22;13837;48.562;12.108;2022-07-10T00:39:36;15.20;99.90
26063;DHT22;13837;48.562;12.108;2022-07-10T00:42:06;15.20;99.90
26063;DHT22;13837;48.562;12.108;2022-07-10T00:44:33;15.20;99.90
26063;DHT22;13837;48.562;12.108;2022-07-10T00:46:59;15.30;99.90
26063;DHT22;13837;48.562;12.108;2022-07-10T00:49:24;15.20;99.90
26063;DHT22;13837;48.562;12.108;2022-07-10T00:51:50;15.20;99.90
26063;DHT22;13837;48.562;12.108;2022-07-10T00:54:16;15.20;99.90
26063;DHT22;13837;48.562;12.108;2022-07-10T00:56:43;15.20;99.90
26063;DHT22;13837;48.562;12.108;2022-07-10T00:59:09;15.10;99.90
26063;DHT22;13837;48.562;12.108;2022-07-10T01:01:35;15.10;99.90
26063;DHT22;13837;48.562;12.108;2022-07-10T01:04:01;15.00;99.90
26063;DHT22;13837;48.562;12.108;2022-07-10T01:06:27;15.00;99.90
26063;DHT22;13837;48.562;12.108;2022-07-10T01:08:53;15.00;99.90
26063;DHT22;13837;48.562;12.108;2022-07-10T01:11:20;15.00;99.90
26063;DHT22;13837;48.562;12.108;2022-07-10T01:13:46;15.10;99.90
26063;DHT22;13837;48.562;12.108;2022-07-10T01:16:12;15.10;99.90
26063;DHT22;13837;48.562;12.108;2022-07-10T01:18:38;15.10;99.90
26063;DHT22;13837;48.562;12.108;2022-07-10T01:21:04;15.10;99.90
26063;DHT22;13837;48.562;12.108;2022-07-10T01:23:30;15.10;99.90
26063;DHT22;13837;48.562;12.108;2022-07-10T01:25:55;15.00;99.90
26063;DHT22;13837;48.562;12.108;2022-07-10T01:28:22;15.00;99.90
26063;DHT22;13837;48.562;12.108;2022-07-10T01:30:49;15.00;99.90
26063;DHT22;13837;48.562;12.108;2022-07-10T01:33:14;14.90;99.90
26063;DHT22;13837;48.562;12.108;2022-07-10T01:35:41;15.00;99.90
26063;DHT22;13837;48.562;12.108;2022-07-10T01:38:06;15.00;99.90
26063;DHT22;13837;48.562;12.108;2022-07-10T01:40:32;15.00;99.90
26063;DHT22;13837;48.562;12.108;2022-07-10T01:42:58;14.90;99.90
26063;DHT22;13837;48.562;12.108;2022-07-10T01:45:24;14.90;99.90
26063;DHT22;13837;48.562;12.108;2022-07-10T01:47:51;14.90;99.90
26063;DHT22;13837;48.562;12.108;2022-07-10T01:50:16;14.80;99.90
26063;DHT22;13837;48.562;12.108;2022-07-10T01:52:42;14.90;99.90
26063;DHT22;13837;48.562;12.108;2022-07-10T01:55:08;14.90;99.90
26063;DHT22;13837;48.562;12.108;2022-07-10T01:57:34;14.80;99.90
26063;DHT22;13837;48.562;12.108;2022-07-10T02:00:00;14.80;99.90
26063;DHT22;13837;48.562;12.108;2022-07-10T02:02:25;14.80;99.90
26063;DHT22;13837;48.562;12.108;2022-07-10T02:04:51;14.80;99.90
26063;DHT22;13837;48.562;12.108;2022-07-10T02:07:18;14.80;99.90
26063;DHT22;13837;48.562;12.108;2022-07-10T02:09:45;14.80;99.90
26063;DHT22;13837;48.562;12.108;2022-07-10T02:12:13;14.80;99.90
26063;DHT22;13837;48.562;12.108;2022-07-10T02:14:39;14.80;99.90
26063;DHT22;13837;48.562;12.108;2022-07-10T02:17:05;14.80;99.90
26063;DHT22;13837;48.562;12.108;2022-07-10T02:19:32;14.80;99.90
26063;DHT22;13837;48.562;12.108;2022-07-10T02:21:58;14.80;99.90
26063;DHT22;13837;48.562;12.108;2022-07-10T02:24:24;14.80;99.90
26063;DHT22;13837;48.562;12.108;2022-07-10T02:26:50;14.80;99.90
26063;DHT22;13837;48.562;12.108;2022-07-10T02:29:16;14.70;99.90
26063;DHT22;13837;48.562;12.108;2022-07-10T02:31:41;14.70;99.90
26063;DHT22;13837;48.562;12.108;2022-07-10T02:34:08;14.60;99.90
26063;DHT22;13837;48.562;12.108;2022-07-10T02:36:34;14.60;99.90
26063;DHT22;13837;48.562;12.108;2022-07-10T02:39:00;14.50;99.90
26063;DHT22;13837;48.562;12.108;2022-07-10T02:41:26;14.50;99.90
26063;DHT22;13837;48.562;12.108;2022-07-10T02:43:52;14.50;99.90
26063;DHT22;13837;48.562;12.108;2022-07-10T02:46:18;14.50;99.90
26063;DHT22;13837;48.562;12.108;2022-07-10T02:48:43;14.40;99.90
26063;DHT22;13837;48.562;12.108;2022-07-10T02:51:09;14.40;99.90
26063;DHT22;13837;48.562;12.108;2022-07-10T02:53:35;14.40;99.90
26063;DHT22;13837;48.562;12.108;2022-07-10T02:56:01;14.50;99.90
26063;DHT22;13837;48.562;12.108;2022-07-10T02:58:26;14.50;99.90
26063;DHT22;13837;48.562;12.108;2022-07-10T03:00:52;14.40;99.90
26063;DHT22;13837;48.562;12.108;2022-07-10T03:03:18;14.40;99.90
26063;DHT22;13837;48.562;12.108;2022-07-10T03:05:45;14.40;99.90
26063;DHT22;13837;48.562;12.108;2022-07-10T03:08:11;14.40;99.90
26063;DHT22;13837;48.562;12.108;2022-07-10T03:10:36;14.40;99.90
26063;DHT22;13837;48.562;12.108;2022-07-10T03:13:02;14.40;99.90
26063;DHT22;13837;48.562;12.108;2022-07-10T03:15:28;14.40;99.90
26063;DHT22;13837;48.562;12.108;2022-07-10T03:17:54;14.30;99.90
26063;DHT22;13837;48.562;12.108;2022-07-10T03:20:20;14.30;99.90
26063;DHT22;13837;48.562;12.108;2022-07-10T03:22:45;14.20;99.90
26063;DHT22;13837;48.562;12.108;2022-07-10T03:25:11;14.10;99.90
26063;DHT22;13837;48.562;12.108;2022-07-10T03:27:37;14.20;99.90
26063;DHT22;13837;48.562;12.108;2022-07-10T03:30:04;14.10;99.90
26063;DHT22;13837;48.562;12.108;2022-07-10T03:32:30;14.10;99.90
26063;DHT22;13837;48.562;12.108;2022-07-10T03:34:55;14.00;99.90
26063;DHT22;13837;48.562;12.108;2022-07-10T03:37:21;14.00;99.90
26063;DHT22;13837;48.562;12.108;2022-07-10T03:39:47;14.00;99.90
26063;DHT22;13837;48.562;12.108;2022-07-10T03:42:12;14.00;99.90
26063;DHT22;13837;48.562;12.108;2022-07-10T03:44:38;14.00;99.90
26063;DHT22;13837;48.562;12.108;2022-07-10T03:47:04;14.00;99.90
26063;DHT22;13837;48.562;12.108;2022-07-10T03:49:29;14.00;99.90
26063;DHT22;13837;48.562;12.108;2022-07-10T03:52:02;13.90;99.90
26063;DHT22;13837;48.562;12.108;2022-07-10T03:54:29;13.90;99.90
26063;DHT22;13837;48.562;12.108;2022-07-10T03:56:56;13.90;99.90
26063;DHT22;13837;48.562;12.108;2022-07-10T03:59:40;13.80;99.90
26063;DHT22;13837;48.562;12.108;2022-07-10T04:02:06;13.70;99.90
26063;DHT22;13837;48.562;12.108;2022-07-10T04:04:32;13.70;99.90
26063;DHT22;13837;48.562;12.108;2022-07-10T04:06:58;13.70;99.90
26063;DHT22;13837;48.562;12.108;2022-07-10T04:09:23;13.70;99.90
26063;DHT22;13837;48.562;12.108;2022-07-10T04:11:49;13.70;99.90
26063;DHT22;13837;48.562;12.108;2022-07-10T04:14:15;13.60;99.90
26063;DHT22;13837;48.562;12.108;2022-07-10T04:16:40;13.60;99.90
26063;DHT22;13837;48.562;12.108;2022-07-10T04:19:06;13.60;99.90
26063;DHT22;13837;48.562;12.108;2022-07-10T04:21:32;13.60;99.90
26063;DHT22;13837;48.562;12.108;2022-07-10T04:23:57;13.60;99.90
26063;DHT22;13837;48.562;12.108;2022-07-10T04:26:23;13.60;99.90
26063;DHT22;13837;48.562;12.108;2022-07-10T04:28:49;13.60;99.90
26063;DHT22;13837;48.562;12.108;2022-07-10T04:31:15;13.60;99.90
26063;DHT22;13837;48.562;12.108;2022-07-10T04:33:40;13.60;99.90
26063;DHT22;13837;48.562;12.108;2022-07-10T04:36:07;13.60;99.90
26063;DHT22;13837;48.562;12.108;2022-07-10T04:38:32;13.60;99.90
26063;DHT22;13837;48.562;12.108;2022-07-10T04:40:58;13.60;99.90
26063;DHT22;13837;48.562;12.108;2022-07-10T04:43:24;13.60;99.90
26063;DHT22;13837;48.562;12.108;2022-07-10T04:45:49;13.70;99.90
26063;DHT22;13837;48.562;12.108;2022-07-10T04:48:15;13.80;99.90
26063;DHT22;13837;48.562;12.108;2022-07-10T04:50:41;13.80;99.90
26063;DHT22;13837;48.562;12.108;2022-07-10T04:53:06;13.80;99.90
26063;DHT22;13837;48.562;12.108;2022-07-10T04:55:32;13.80;99.90
26063;DHT22;13837;48.562;12.108;2022-07-10T04:57:58;13.90;99.90
26063;DHT22;13837;48.562;12.108;2022-07-10T05:00:24;14.00;99.90
26063;DHT22;13837;48.562;12.108;2022-07-10T05:02:50;14.00;99.90
26063;DHT22;13837;48.562;12.108;2022-07-10T05:05:15;14.10;99.90
26063;DHT22;13837;48.562;12.108;2022-07-10T05:07:41;14.20;99.90
26063;DHT22;13837;48.562;12.108;2022-07-10T05:10:07;14.30;99.90
26063;DHT22;13837;48.562;12.108;2022-07-10T05:12:33;14.30;99.90
26063;DHT22;13837;48.562;12.108;2022-07-10T05:14:58;14.40;99.90
26063;DHT22;13837;48.562;12.108;2022-07-10T05:17:26;14.50;99.90
26063;DHT22;13837;48.562;12.108;2022-07-10T05:19:52;14.50;99.90
26063;DHT22;13837;48.562;12.108;2022-07-10T05:22:19;14.50;99.90
26063;DHT22;13837;48.562;12.108;2022-07-10T05:24:44;14.50;99.90
26063;DHT22;13837;48.562;12.108;2022-07-10T05:27:10;14.50;99.90
26063;DHT22;13837;48.562;12.108;2022-07-10T05:29:36;14.40;99.90
26063;DHT22;13837;48.562;12.108;2022-07-10T05:32:02;14.40;99.90
26063;DHT22;13837;48.562;12.108;2022-07-10T05:34:28;14.50;99.90
26063;DHT22;13837;48.562;12.108;2022-07-10T05:36:53;14.50;99.90
26063;DHT22;13837;48.562;12.108;2022-07-10T05:39:19;14.60;99.90
26063;DHT22;13837;48.562;12.108;2022-07-10T05:41:49;14.50;99.90
26063;DHT22;13837;48.562;12.108;2022-07-10T05:44:15;14.50;99.90
26063;DHT22;13837;48.562;12.108;2022-07-10T05:46:40;14.50;99.90
26063;DHT22;13837;48.562;12.108;2022-07-10T05:49:06;14.50;99.90
26063;DHT22;13837;48.562;12.108;2022-07-10T05:51:32;14.60;99.90
26063;DHT22;13837;48.562;12.108;2022-07-10T05:53:57;14.70;99.90
26063;DHT22;13837;48.562;12.108;2022-07-10T05:56:23;14.70;99.90
26063;DHT22;13837;48.562;12.108;2022-07-10T05:58:49;14.70;99.90
26063;DHT22;13837;48.562;12.108;2022-07-10T06:01:15;14.80;99.90
26063;DHT22;13837;48.562;12.108;2022-07-10T06:03:41;14.90;99.90
26063;DHT22;13837;48.562;12.108;2022-07-10T06:06:06;14.90;99.90
26063;DHT22;13837;48.562;12.108;2022-07-10T06:08:32;15.00;99.90
26063;DHT22;13837;48.562;12.108;2022-07-10T06:10:57;15.10;99.90
26063;DHT22;13837;48.562;12.108;2022-07-10T06:13:23;15.20;99.90
26063;DHT22;13837;48.562;12.108;2022-07-10T06:15:49;15.20;99.90
26063;DHT22;13837;48.562;12.108;2022-07-10T06:18:14;15.30;99.90
26063;DHT22;13837;48.562;12.108;2022-07-10T06:20:40;15.30;99.90
26063;DHT22;13837;48.562;12.108;2022-07-10T06:23:06;15.30;99.90
26063;DHT22;13837;48.562;12.108;2022-07-10T06:25:31;15.30;99.90
26063;DHT22;13837;48.562;12.108;2022-07-10T06:27:57;15.40;99.90
26063;DHT22;13837;48.562;12.108;2022-07-10T06:30:23;15.30;99.90
26063;DHT22;13837;48.562;12.108;2022-07-10T06:32:48;15.20;99.90
26063;DHT22;13837;48.562;12.108;2022-07-10T06:35:14;15.10;99.90
26063;DHT22;13837;48.562;12.108;2022-07-10T06:37:39;15.20;99.90
26063;DHT22;13837;48.562;12.108;2022-07-10T06:40:06;15.40;99.90
26063;DHT22;13837;48.562;12.108;2022-07-10T06:42:31;15.60;99.90
26063;DHT22;13837;48.562;12.108;2022-07-10T06:44:59;15.60;99.90
26063;DHT22;13837;48.562;12.108;2022-07-10T06:47:25;15.50;99.90
26063;DHT22;13837;48.562;12.108;2022-07-10T06:50:10;15.40;99.90
26063;DHT22;13837;48.562;12.108;2022-07-10T06:52:36;15.40;99.90
26063;DHT22;13837;48.562;12.108;2022-07-10T06:55:03;15.40;99.90
26063;DHT22;13837;48.562;12.108;2022-07-10T06:57:29;15.30;99.90
26063;DHT22;13837;48.562;12.108;2022-07-10T06:59:55;15.40;99.90
26063;DHT22;13837;48.562;12.108;2022-07-10T07:02:21;15.60;99.90
26063;DHT22;13837;48.562;12.108;2022-07-10T07:04:46;15.60;99.90
26063;DHT22;13837;48.562;12.108;2022-07-10T07:07:13;15.80;99.90
26063;DHT22;13837;48.562;12.108;2022-07-10T07:09:39;15.80;99.90
26063;DHT22;13837;48.562;12.108;2022-07-10T07:12:06;15.80;99.90
26063;DHT22;13837;48.562;12.108;2022-07-10T07:14:32;15.80;99.90
26063;DHT22;13837;48.562;12.108;2022-07-10T07:16:58;15.90;99.90
26063;DHT22;13837;48.562;12.108;2022-07-10T07:19:40;16.10;99.90
26063;DHT22;13837;48.562;12.108;2022-07-10T07:22:25;16.10;99.90
26063;DHT22;13837;48.562;12.108;2022-07-10T07:25:10;16.20;99.90
26063;DHT22;13837;48.562;12.108;2022-07-10T07:27:37;15.90;99.90
26063;DHT22;13837;48.562;12.108;2022-07-10T07:30:06;15.80;99.90
26063;DHT22;13837;48.562;12.108;2022-07-10T07:32:32;15.80;99.90
26063;DHT22;13837;48.562;12.108;2022-07-10T07:34:58;15.80;99.90
26063;DHT22;13837;48.562;12.108;2022-07-10T07:37:35;15.80;99.90
26063;DHT22;13837;48.562;12.108;2022-07-10T07:40:01;15.90;99.90
26063;DHT22;13837;48.562;12.108;2022-07-10T07:42:27;15.90;99.90
26063;DHT22;13837;48.562;12.108;2022-07-10T07:44:52;16.20;99.90
26063;DHT22;13837;48.562;12.108;2022-07-10T07:47:18;16.50;99.90
26063;DHT22;13837;48.562;12.108;2022-07-10T07:49:43;16.70;99.90
26063;DHT22;13837;48.562;12.108;2022-07-10T07:52:09;16.80;99.90
26063;DHT22;13837;48.562;12.108;2022-07-10T07:54:35;16.80;99.90
26063;DHT22;13837;48.562;12.108;2022-07-10T07:57:00;17.00;99.90
26063;DHT22;13837;48.562;12.108;2022-07-10T07:59:26;17.20;99.90
26063;DHT22;13837;48.562;12.108;2022-07-10T08:01:52;17.10;99.90
26063;DHT22;13837;48.562;12.108;2022-07-10T08:04:17;16.90;99.90
26063;DHT22;13837;48.562;12.108;2022-07-10T08:06:43;16.80;99.90
26063;DHT22;13837;48.562;12.108;2022-07-10T08:09:09;16.60;99.90
26063;DHT22;13837;48.562;12.108;2022-07-10T08:11:35;16.70;99.90
26063;DHT22;13837;48.562;12.108;2022-07-10T08:14:00;16.80;99.90
26063;DHT22;13837;48.562;12.108;2022-07-10T08:16:26;16.70;99.90
26063;DHT22;13837;48.562;12.108;2022-07-10T08:18:52;16.50;99.90
26063;DHT22;13837;48.562;12.108;2022-07-10T08:21:17;16.40;99.90
26063;DHT22;13837;48.562;12.108;2022-07-10T08:23:43;16.70;99.90
26063;DHT22;13837;48.562;12.108;2022-07-10T08:26:08;17.10;99.90
26063;DHT22;13837;48.562;12.108;2022-07-10T08:28:34;17.30;99.90
26063;DHT22;13837;48.562;12.108;2022-07-10T08:31:00;17.40;99.90
26063;DHT22;13837;48.562;12.108;2022-07-10T08:33:26;17.20;99.90
26063;DHT22;13837;48.562;12.108;2022-07-10T08:35:52;17.30;99.90
26063;DHT22;13837;48.562;12.108;2022-07-10T08:38:18;17.10;99.90
26063;DHT22;13837;48.562;12.108;2022-07-10T08:40:44;17.40;99.90
26063;DHT22;13837;48.562;12.108;2022-07-10T08:43:11;17.50;99.90
26063;DHT22;13837;48.562;12.108;2022-07-10T08:45:36;17.50;99.90
26063;DHT22;13837;48.562;12.108;2022-07-10T08:48:07;17.30;99.90
26063;DHT22;13837;48.562;12.108;2022-07-10T08:50:33;17.10;99.90
26063;DHT22;13837;48.562;12.108;2022-07-10T08:53:13;17.20;99.90
26063;DHT22;13837;48.562;12.108;2022-07-10T08:55:39;16.70;99.90
26063;DHT22;13837;48.562;12.108;2022-07-10T08:58:05;16.70;99.90
26063;DHT22;13837;48.562;12.108;2022-07-10T09:00:33;16.70;99.90
26063;DHT22;13837;48.562;12.108;2022-07-10T09:02:58;17.30;99.90
26063;DHT22;13837;48.562;12.108;2022-07-10T09:05:25;17.70;99.90
26063;DHT22;13837;48.562;12.108;2022-07-10T09:07:52;17.70;99.90
26063;DHT22;13837;48.562;12.108;2022-07-10T09:10:26;17.50;99.90
26063;DHT22;13837;48.562;12.108;2022-07-10T09:12:56;17.20;99.90
26063;DHT22;13837;48.562;12.108;2022-07-10T09:15:25;17.20;99.90
26063;DHT22;13837;48.562;12.108;2022-07-10T09:17:58;17.40;99.90
26063;DHT22;13837;48.562;12.108;2022-07-10T09:20:43;17.50;99.90
26063;DHT22;13837;48.562;12.108;2022-07-10T09:23:21;17.60;99.90
26063;DHT22;13837;48.562;12.108;2022-07-10T09:25:49;18.00;99.90
26063;DHT22;13837;48.562;12.108;2022-07-10T09:28:20;18.20;99.90
26063;DHT22;13837;48.562;12.108;2022-07-10T09:30:46;17.70;99.90
26063;DHT22;13837;48.562;12.108;2022-07-10T09:35:56;17.00;99.90
26063;DHT22;13837;48.562;12.108;2022-07-10T09:38:49;16.90;99.90
26063;DHT22;13837;48.562;12.108;2022-07-10T09:41:24;17.50;99.90
26063;DHT22;13837;48.562;12.108;2022-07-10T09:43:50;17.70;99.90
26063;DHT22;13837;48.562;12.108;2022-07-10T09:46:18;17.60;99.90
26063;DHT22;13837;48.562;12.108;2022-07-10T09:48:44;18.10;99.90
26063;DHT22;13837;48.562;12.108;2022-07-10T09:51:11;18.20;99.90
26063;DHT22;13837;48.562;12.108;2022-07-10T09:53:44;18.10;99.90
26063;DHT22;13837;48.562;12.108;2022-07-10T09:56:12;18.20;99.90
26063;DHT22;13837;48.562;12.108;2022-07-10T09:58:39;18.20;99.90
26063;DHT22;13837;48.562;12.108;2022-07-10T10:01:06;18.40;99.90
26063;DHT22;13837;48.562;12.108;2022-07-10T10:03:39;18.80;99.90
26063;DHT22;13837;48.562;12.108;2022-07-10T10:06:10;18.90;99.90
26063;DHT22;13837;48.562;12.108;2022-07-10T10:09:15;19.00;99.90
26063;DHT22;13837;48.562;12.108;2022-07-10T10:11:44;18.10;99.90
26063;DHT22;13837;48.562;12.108;2022-07-10T10:14:12;18.20;99.90
26063;DHT22;13837;48.562;12.108;2022-07-10T10:16:39;18.10;99.90
26063;DHT22;13837;48.562;12.108;2022-07-10T10:19:08;17.90;99.90
26063;DHT22;13837;48.562;12.108;2022-07-10T10:21:54;17.80;99.90
26063;DHT22;13837;48.562;12.108;2022-07-10T10:24:22;18.10;99.90
26063;DHT22;13837;48.562;12.108;2022-07-10T10:26:49;18.30;99.90
26063;DHT22;13837;48.562;12.108;2022-07-10T10:29:15;18.90;99.90
26063;DHT22;13837;48.562;12.108;2022-07-10T10:31:41;18.90;99.90
26063;DHT22;13837;48.562;12.108;2022-07-10T10:34:07;18.80;99.90
26063;DHT22;13837;48.562;12.108;2022-07-10T10:39:12;19.30;99.90
26063;DHT22;13837;48.562;12.108;2022-07-10T10:41:46;19.20;99.90
26063;DHT22;13837;48.562;12.108;2022-07-10T10:46:59;19.30;99.90
26063;DHT22;13837;48.562;12.108;2022-07-10T10:49:49;18.80;99.90
26063;DHT22;13837;48.562;12.108;2022-07-10T10:52:15;18.70;99.90
26063;DHT22;13837;48.562;12.108;2022-07-10T11:00:04;19.20;99.90
26063;DHT22;13837;48.562;12.108;2022-07-10T11:02:37;19.20;99.90
26063;DHT22;13837;48.562;12.108;2022-07-10T11:08:03;19.00;99.90
26063;DHT22;13837;48.562;12.108;2022-07-10T11:13:10;19.20;99.90
26063;DHT22;13837;48.562;12.108;2022-07-10T11:15:39;19.00;99.90
26063;DHT22;13837;48.562;12.108;2022-07-10T11:18:05;18.60;99.90
26063;DHT22;13837;48.562;12.108;2022-07-10T11:20:36;18.30;99.90
26063;DHT22;13837;48.562;12.108;2022-07-10T11:26:07;19.20;99.90
26063;DHT22;13837;48.562;12.108;2022-07-10T11:28:59;19.10;99.90
26063;DHT22;13837;48.562;12.108;2022-07-10T11:31:27;19.00;99.90
26063;DHT22;13837;48.562;12.108;2022-07-10T11:33:55;18.90;99.90
26063;DHT22;13837;48.562;12.108;2022-07-10T11:36:22;18.80;99.90
26063;DHT22;13837;48.562;12.108;2022-07-10T11:39:05;19.00;99.90
26063;DHT22;13837;48.562;12.108;2022-07-10T11:41:32;19.30;99.90
26063;DHT22;13837;48.562;12.108;2022-07-10T11:44:02;19.30;99.80
26063;DHT22;13837;48.562;12.108;2022-07-10T11:46:34;18.70;99.90
26063;DHT22;13837;48.562;12.108;2022-07-10T11:49:04;18.30;99.90
26063;DHT22;13837;48.562;12.108;2022-07-10T11:51:36;18.30;99.90
26063;DHT22;13837;48.562;12.108;2022-07-10T11:54:12;18.40;99.90
26063;DHT22;13837;48.562;12.108;2022-07-10T11:56:41;18.70;99.90
26063;DHT22;13837;48.562;12.108;2022-07-10T11:59:10;19.00;99.90
26063;DHT22;13837;48.562;12.108;2022-07-10T12:01:46;18.80;99.90
26063;DHT22;13837;48.562;12.108;2022-07-10T12:04:13;18.90;99.90
26063;DHT22;13837;48.562;12.108;2022-07-10T12:06:41;18.80;99.90
26063;DHT22;13837;48.562;12.108;2022-07-10T12:09:09;18.90;99.90
26063;DHT22;13837;48.562;12.108;2022-07-10T12:11:35;18.70;99.90
26063;DHT22;13837;48.562;12.108;2022-07-10T12:14:16;18.50;99.90
26063;DHT22;13837;48.562;12.108;2022-07-10T12:16:46;19.00;99.90
26063;DHT22;13837;48.562;12.108;2022-07-10T12:19:26;19.10;99.90
26063;DHT22;13837;48.562;12.108;2022-07-10T12:21:54;19.50;99.80
26063;DHT22;13837;48.562;12.108;2022-07-10T12:24:20;19.30;99.90
26063;DHT22;13837;48.562;12.108;2022-07-10T12:26:46;19.20;99.30
26063;DHT22;13837;48.562;12.108;2022-07-10T12:29:23;18.80;99.30
26063;DHT22;13837;48.562;12.108;2022-07-10T12:31:54;18.80;99.90
26063;DHT22;13837;48.562;12.108;2022-07-10T12:34:36;19.10;99.90
26063;DHT22;13837;48.562;12.108;2022-07-10T12:37:12;18.80;98.80
26063;DHT22;13837;48.562;12.108;2022-07-10T12:39:50;19.00;99.40
26063;DHT22;13837;48.562;12.108;2022-07-10T12:42:28;18.90;98.90
26063;DHT22;13837;48.562;12.108;2022-07-10T12:44:54;18.80;99.70
26063;DHT22;13837;48.562;12.108;2022-07-10T12:47:21;19.40;98.00
26063;DHT22;13837;48.562;12.108;2022-07-10T12:50:07;19.50;97.90
26063;DHT22;13837;48.562;12.108;2022-07-10T12:52:35;19.30;98.50
26063;DHT22;13837;48.562;12.108;2022-07-10T12:55:12;19.80;98.10
26063;DHT22;13837;48.562;12.108;2022-07-10T13:00:27;19.90;97.30
26063;DHT22;13837;48.562;12.108;2022-07-10T13:10:46;20.60;97.00
26063;DHT22;13837;48.562;12.108;2022-07-10T13:13:13;20.90;96.50
26063;DHT22;13837;48.562;12.108;2022-07-10T13:15:39;21.10;96.60
26063;DHT22;13837;48.562;12.108;2022-07-10T13:18:07;20.80;95.10
26063;DHT22;13837;48.562;12.108;2022-07-10T13:20:33;20.80;95.80
26063;DHT22;13837;48.562;12.108;2022-07-10T13:22:59;20.20;94.40
26063;DHT22;13837;48.562;12.108;2022-07-10T13:25:24;19.60;95.70
26063;DHT22;13837;48.562;12.108;2022-07-10T13:27:50;19.60;96.30
26063;DHT22;13837;48.562;12.108;2022-07-10T13:30:17;19.90;96.50
26063;DHT22;13837;48.562;12.108;2022-07-10T13:32:43;20.20;95.30
26063;DHT22;13837;48.562;12.108;2022-07-10T13:35:08;20.10;94.30
26063;DHT22;13837;48.562;12.108;2022-07-10T13:37:34;20.50;95.00
26063;DHT22;13837;48.562;12.108;2022-07-10T13:40:00;20.10;94.10
26063;DHT22;13837;48.562;12.108;2022-07-10T13:42:26;20.10;95.40
26063;DHT22;13837;48.562;12.108;2022-07-10T13:44:52;20.20;95.00
26063;DHT22;13837;48.562;12.108;2022-07-10T13:47:18;20.60;94.80
26063;DHT22;13837;48.562;12.108;2022-07-10T13:49:43;20.80;94.60
26063;DHT22;13837;48.562;12.108;2022-07-10T13:52:09;20.60;94.40
26063;DHT22;13837;48.562;12.108;2022-07-10T13:54:35;20.00;94.20
26063;DHT22;13837;48.562;12.108;2022-07-10T13:57:00;20.30;93.70
26063;DHT22;13837;48.562;12.108;2022-07-10T13:59:27;20.30;94.90
26063;DHT22;13837;48.562;12.108;2022-07-10T14:01:52;20.90;94.60
26063;DHT22;13837;48.562;12.108;2022-07-10T14:04:18;20.40;93.20
26063;DHT22;13837;48.562;12.108;2022-07-10T14:06:44;19.90;94.70
26063;DHT22;13837;48.562;12.108;2022-07-10T14:09:09;20.10;94.20
26063;DHT22;13837;48.562;12.108;2022-07-10T14:11:35;20.50;94.00
26063;DHT22;13837;48.562;12.108;2022-07-10T14:14:01;20.40;93.30
26063;DHT22;13837;48.562;12.108;2022-07-10T14:16:27;19.90;94.50
26063;DHT22;13837;48.562;12.108;2022-07-10T14:18:53;19.60;94.80
26063;DHT22;13837;48.562;12.108;2022-07-10T14:21:19;19.60;95.10
26063;DHT22;13837;48.562;12.108;2022-07-10T14:23:45;20.10;94.60
26063;DHT22;13837;48.562;12.108;2022-07-10T14:26:12;19.90;94.90
26063;DHT22;13837;48.562;12.108;2022-07-10T14:28:38;20.10;94.10
26063;DHT22;13837;48.562;12.108;2022-07-10T14:31:05;20.10;93.20
26063;DHT22;13837;48.562;12.108;2022-07-10T14:33:32;19.90;94.10
26063;DHT22;13837;48.562;12.108;2022-07-10T14:35:59;19.90;94.60
26063;DHT22;13837;48.562;12.108;2022-07-10T14:38:25;20.00;94.50
26063;DHT22;13837;48.562;12.108;2022-07-10T14:40:51;20.20;94.20
26063;DHT22;13837;48.562;12.108;2022-07-10T14:43:19;20.40;94.30
26063;DHT22;13837;48.562;12.108;2022-07-10T14:45:45;20.10;94.50
26063;DHT22;13837;48.562;12.108;2022-07-10T14:48:11;19.60;94.20
26063;DHT22;13837;48.562;12.108;2022-07-10T14:50:36;19.40;94.80
26063;DHT22;13837;48.562;12.108;2022-07-10T14:53:02;19.50;95.40
26063;DHT22;13837;48.562;12.108;2022-07-10T14:55:28;19.90;95.80
26063;DHT22;13837;48.562;12.108;2022-07-10T14:57:53;19.70;94.30
26063;DHT22;13837;48.562;12.108;2022-07-10T15:00:19;19.30;94.50
26063;DHT22;13837;48.562;12.108;2022-07-10T15:02:45;19.40;96.00
26063;DHT22;13837;48.562;12.108;2022-07-10T15:05:11;19.60;95.40
26063;DHT22;13837;48.562;12.108;2022-07-10T15:07:37;19.90;95.50
26063;DHT22;13837;48.562;12.108;2022-07-10T15:10:02;19.90;94.80
26063;DHT22;13837;48.562;12.108;2022-07-10T15:12:28;19.50;95.40
26063;DHT22;13837;48.562;12.108;2022-07-10T15:14:57;19.30;95.50
26063;DHT22;13837;48.562;12.108;2022-07-10T15:17:22;19.30;95.50
26063;DHT22;13837;48.562;12.108;2022-07-10T15:19:48;19.50;95.50
26063;DHT22;13837;48.562;12.108;2022-07-10T15:22:14;19.50;95.90
26063;DHT22;13837;48.562;12.108;2022-07-10T15:24:39;19.40;95.80
26063;DHT22;13837;48.562;12.108;2022-07-10T15:27:07;19.20;95.60
26063;DHT22;13837;48.562;12.108;2022-07-10T15:29:33;19.20;95.40
26063;DHT22;13837;48.562;12.108;2022-07-10T15:31:58;19.10;95.20
26063;DHT22;13837;48.562;12.108;2022-07-10T15:34:24;18.80;96.20
26063;DHT22;13837;48.562;12.108;2022-07-10T15:36:50;18.40;96.30
26063;DHT22;13837;48.562;12.108;2022-07-10T15:39:16;18.80;97.00
26063;DHT22;13837;48.562;12.108;2022-07-10T15:41:42;19.20;96.50
26063;DHT22;13837;48.562;12.108;2022-07-10T15:44:12;19.00;94.90
26063;DHT22;13837;48.562;12.108;2022-07-10T15:46:37;19.00;95.80
26063;DHT22;13837;48.562;12.108;2022-07-10T15:49:03;19.20;95.60